TS86 weather

Community Hospital Heliport
Missouri City, Texas, United States

Public forecast

Using degrees Fahrenheit for public forecast. Weather courtesy of forecast.io.

METAR (pilot weather report)

Closest report is Houston Southwest Airport, 5.7 nm (10.5 km) SE. Retrieved 2019/07/23 17:35 UTC (11 minutes ago):

KAXH 231735Z AUTO 35004KT 10SM BKN023 BKN034 OVC060 28/23 A3002 RMK AO2 LTG DSNT E T02830233

TAF (pilot weather forecast)

Closest forecast is Sugar Land Regional Airport, 6.0 nm (11.1 km) NW. Retrieved 2019/07/23 12:24 UTC (5 hours ago):

TAF KSGR 231121Z 2312/2412 28008KT P6SM SCT060 BKN100 BKN250 FM231500 35009KT P6SM VCTS SCT025CB BKN250 FM231800 01013KT P6SM SCT025 BKN035 FM240200 02006KT P6SM SCT250